createdAt,value
2023-02-14T00:01:33.990Z,75.16
2023-02-14T00:03:36.214Z,74.52
2023-02-14T00:05:38.198Z,75.03
2023-02-14T00:07:40.126Z,74.57
2023-02-14T00:09:42.020Z,74.30
2023-02-14T00:11:45.596Z,75.27
2023-02-14T00:14:08.281Z,75.07
2023-02-14T00:16:10.208Z,74.78
2023-02-14T00:18:12.216Z,74.66
2023-02-14T00:20:14.269Z,75.35
2023-02-14T00:22:21.187Z,74.84
2023-02-14T00:24:25.784Z,74.93
2023-02-14T00:26:27.956Z,74.19
2023-02-14T00:28:30.976Z,74.12
2023-02-14T00:30:33.087Z,75.15
2023-02-14T00:32:39.506Z,76.05
2023-02-14T00:34:41.540Z,75.16
2023-02-14T00:36:43.985Z,75.97
2023-02-14T00:38:46.876Z,75.81
2023-02-14T00:40:49.034Z,75.95
2023-02-14T00:42:50.992Z,75.95
2023-02-14T00:44:54.023Z,75.52
2023-02-14T00:46:56.021Z,76.55
2023-02-14T00:48:59.996Z,75.96
2023-02-14T00:51:03.021Z,76.19
2023-02-14T00:53:05.038Z,76.01
2023-02-14T00:55:08.108Z,76.68
2023-02-14T00:57:12.020Z,76.44
2023-02-14T00:59:14.033Z,75.55
2023-02-14T01:01:17.821Z,76.00
2023-02-14T01:03:23.134Z,75.42
2023-02-14T01:05:25.153Z,76.16
2023-02-14T01:07:27.139Z,74.98
2023-02-14T01:09:29.094Z,75.96
2023-02-14T01:11:31.180Z,76.37
2023-02-14T01:13:34.092Z,76.31
2023-02-14T01:15:41.166Z,76.68
2023-02-14T01:17:43.099Z,76.88
2023-02-14T01:19:45.477Z,76.21
2023-02-14T01:21:48.365Z,76.87
2023-02-14T01:23:53.162Z,77.13
2023-02-14T01:25:55.095Z,76.31
2023-02-14T01:27:57.534Z,76.95
2023-02-14T01:29:59.513Z,76.76
2023-02-14T01:32:01.907Z,77.73
2023-02-14T01:34:04.480Z,77.71
2023-02-14T01:36:07.317Z,77.34
2023-02-14T01:38:09.250Z,77.55
2023-02-14T01:40:12.872Z,77.88
2023-02-14T01:42:14.809Z,77.66
2023-02-14T01:44:17.177Z,77.25
2023-02-14T01:46:19.241Z,77.75
2023-02-14T01:48:23.148Z,78.37
2023-02-14T01:50:32.434Z,77.83
2023-02-14T01:52:44.106Z,77.67
2023-02-14T01:54:51.744Z,77.89
2023-02-14T01:57:00.289Z,78.40
2023-02-14T01:59:05.686Z,78.60
2023-02-14T02:01:07.765Z,78.29
2023-02-14T02:03:10.860Z,78.61
2023-02-14T02:05:14.885Z,78.33
2023-02-14T02:07:29.581Z,78.95
2023-02-14T02:09:36.127Z,79.19
2023-02-14T02:11:38.218Z,78.97
2023-02-14T02:13:41.175Z,79.42
2023-02-14T02:15:58.006Z,79.53
2023-02-14T02:18:46.468Z,79.25
2023-02-14T02:20:51.503Z,79.31
2023-02-14T02:23:22.467Z,79.25
2023-02-14T02:25:47.324Z,78.58
2023-02-14T02:28:14.179Z,79.61
2023-02-14T02:30:30.523Z,79.37
2023-02-14T02:32:51.159Z,80.34
2023-02-14T02:35:05.785Z,79.26
2023-02-14T02:37:41.641Z,79.63
2023-02-14T02:40:02.962Z,80.71
2023-02-14T02:42:29.797Z,80.06
2023-02-14T02:44:42.089Z,80.49
2023-02-14T02:46:58.179Z,79.98
2023-02-14T02:49:02.968Z,79.83
2023-02-14T02:51:28.809Z,79.67
2023-02-14T02:53:39.919Z,80.19
2023-02-14T02:56:13.125Z,80.66
2023-02-14T02:58:15.256Z,80.37
2023-02-14T03:00:19.194Z,81.17
2023-02-14T03:02:33.218Z,80.50
2023-02-14T03:04:58.105Z,81.02
2023-02-14T03:07:01.382Z,80.23
2023-02-14T03:09:33.614Z,80.02
2023-02-14T03:11:39.221Z,80.26
2023-02-14T03:14:03.829Z,79.60
2023-02-14T03:16:24.543Z,80.80
2023-02-14T03:18:38.522Z,81.54
2023-02-14T03:21:24.721Z,80.96
2023-02-14T03:23:36.310Z,80.65
2023-02-14T03:25:41.185Z,81.33
2023-02-14T03:27:50.261Z,80.91
2023-02-14T03:30:32.151Z,80.84
2023-02-14T03:32:45.272Z,81.50
2023-02-14T03:35:07.177Z,81.05
2023-02-14T03:37:20.760Z,82.08
2023-02-14T03:39:30.381Z,81.92
2023-02-14T03:41:40.103Z,81.79
2023-02-14T03:43:48.758Z,81.32
2023-02-14T03:46:03.661Z,81.68
2023-02-14T03:48:11.393Z,82.44
2023-02-14T03:50:20.137Z,82.25
2023-02-14T03:52:23.708Z,82.58
2023-02-14T03:54:27.778Z,82.02
2023-02-14T03:56:40.396Z,82.25
2023-02-14T03:58:49.312Z,81.71
2023-02-14T04:00:55.424Z,82.40
2023-02-14T04:03:12.095Z,82.69
2023-02-14T04:05:19.659Z,82.27
2023-02-14T04:07:24.127Z,81.83
2023-02-14T04:09:27.197Z,82.11
2023-02-14T04:11:29.116Z,82.71
2023-02-14T04:13:31.603Z,82.66
2023-02-14T04:15:37.772Z,82.45
2023-02-14T04:17:58.875Z,82.24
2023-02-14T04:20:00.773Z,82.84
2023-02-14T04:22:04.666Z,82.38
2023-02-14T04:24:07.675Z,83.01
2023-02-14T04:26:10.993Z,82.59
2023-02-14T04:28:13.761Z,83.46
2023-02-14T04:30:18.341Z,82.70
2023-02-14T04:32:22.350Z,83.29
2023-02-14T04:34:25.287Z,83.21
2023-02-14T04:36:27.184Z,83.49
2023-02-14T04:38:32.783Z,82.94
2023-02-14T04:40:34.724Z,83.63
2023-02-14T04:42:36.744Z,83.33
2023-02-14T04:44:38.686Z,83.15
2023-02-14T04:46:41.432Z,83.41
2023-02-14T04:48:44.459Z,83.26
2023-02-14T04:50:52.090Z,84.31
2023-02-14T04:52:54.297Z,83.68
2023-02-14T04:54:56.319Z,83.79
2023-02-14T04:56:59.319Z,83.19
2023-02-14T04:59:02.406Z,83.57
2023-02-14T05:01:04.381Z,84.34
2023-02-14T05:03:06.475Z,83.88
2023-02-14T05:05:08.800Z,84.18
2023-02-14T05:07:11.732Z,84.13
2023-02-14T05:09:13.864Z,84.25
2023-02-14T05:11:16.906Z,84.67
2023-02-14T05:13:18.922Z,84.78
2023-02-14T05:15:22.918Z,84.54
2023-02-14T05:17:25.339Z,84.75
2023-02-14T05:19:27.271Z,84.25
2023-02-14T05:21:33.280Z,85.17
2023-02-14T05:23:36.276Z,84.39
2023-02-14T05:25:38.276Z,85.06
2023-02-14T05:27:41.295Z,84.96
2023-02-14T05:29:44.441Z,85.33
2023-02-14T05:31:47.531Z,84.78
2023-02-14T05:33:49.543Z,84.82
2023-02-14T05:36:02.949Z,85.34
2023-02-14T05:38:04.938Z,84.54
2023-02-14T05:40:09.470Z,85.28
2023-02-14T05:42:11.401Z,84.78
2023-02-14T05:44:13.454Z,84.77
2023-02-14T05:46:15.535Z,84.64
2023-02-14T05:48:18.595Z,84.88
2023-02-14T05:50:20.985Z,85.14
2023-02-14T05:52:23.046Z,84.35
2023-02-14T05:54:25.143Z,85.20
2023-02-14T05:56:27.661Z,85.25
2023-02-14T05:58:29.640Z,84.17
2023-02-14T06:00:32.026Z,84.54
2023-02-14T06:02:40.511Z,84.46
2023-02-14T06:04:42.958Z,84.44
2023-02-14T06:06:44.974Z,84.87
2023-02-14T06:08:46.925Z,84.87
2023-02-14T06:10:48.961Z,84.21
2023-02-14T06:12:52.282Z,85.17
2023-02-14T06:14:54.326Z,84.34
2023-02-14T06:16:56.388Z,85.03
2023-02-14T06:18:58.457Z,84.77
2023-02-14T06:21:00.689Z,85.53
2023-02-14T06:23:03.179Z,84.97
2023-02-14T06:25:06.404Z,85.10
2023-02-14T06:27:10.455Z,84.67
2023-02-14T06:29:12.390Z,84.48
2023-02-14T06:31:17.921Z,84.82
2023-02-14T06:33:19.975Z,84.21
2023-02-14T06:35:22.191Z,84.97
2023-02-14T06:37:25.447Z,84.32
2023-02-14T06:39:27.505Z,85.34
2023-02-14T06:41:29.658Z,85.45
2023-02-14T06:43:31.947Z,84.75
2023-02-14T06:45:33.966Z,85.27
2023-02-14T06:47:36.165Z,85.16
2023-02-14T06:49:38.133Z,84.84
2023-02-14T06:51:40.189Z,85.41
2023-02-14T06:53:42.239Z,84.47
2023-02-14T06:55:45.213Z,85.17
2023-02-14T06:57:50.413Z,84.34
2023-02-14T06:59:52.406Z,84.60
2023-02-14T07:01:56.514Z,85.07
2023-02-14T07:03:58.541Z,84.44
2023-02-14T07:06:00.851Z,84.26
2023-02-14T07:08:03.137Z,84.50
2023-02-14T07:10:05.674Z,84.64
2023-02-14T07:12:07.987Z,84.62
2023-02-14T07:14:09.968Z,83.99
2023-02-14T07:16:12.198Z,84.52
2023-02-14T07:18:14.296Z,84.37
2023-02-14T07:20:16.339Z,84.60
2023-02-14T07:22:19.340Z,84.18
2023-02-14T07:24:21.417Z,84.63
2023-02-14T07:26:24.447Z,84.29
2023-02-14T07:28:26.407Z,84.29
2023-02-14T07:30:29.519Z,84.20
2023-02-14T07:32:32.671Z,83.40
2023-02-14T07:34:36.640Z,83.59
2023-02-14T07:36:39.270Z,84.12
2023-02-14T07:38:43.130Z,83.41
2023-02-14T07:40:45.158Z,83.67
2023-02-14T07:42:58.512Z,82.83
2023-02-14T07:45:04.897Z,83.34
2023-02-14T07:47:11.426Z,83.65
2023-02-14T07:49:13.523Z,83.26
2023-02-14T07:51:15.510Z,82.75
2023-02-14T07:53:18.534Z,83.47
2023-02-14T07:55:20.748Z,82.63
2023-02-14T07:57:23.713Z,83.60
2023-02-14T07:59:27.836Z,82.76
2023-02-14T08:01:29.915Z,83.18
2023-02-14T08:03:32.903Z,82.06
2023-02-14T08:05:36.112Z,82.31
2023-02-14T08:07:42.321Z,82.36
2023-02-14T08:09:46.416Z,82.78
2023-02-14T08:12:07.907Z,81.93
2023-02-14T08:14:10.177Z,81.99
2023-02-14T08:16:12.871Z,82.17
2023-02-14T08:18:15.440Z,81.56
2023-02-14T08:20:20.430Z,82.10
2023-02-14T08:22:22.429Z,82.22
2023-02-14T08:24:24.374Z,80.87
2023-02-14T08:26:27.468Z,81.47
2023-02-14T08:28:33.435Z,80.59
2023-02-14T08:30:40.658Z,81.20
2023-02-14T08:32:49.734Z,81.40
2023-02-14T08:34:51.800Z,80.93
2023-02-14T08:36:55.035Z,81.69
2023-02-14T08:38:58.088Z,81.59
2023-02-14T08:41:04.531Z,81.71
2023-02-14T08:43:09.640Z,81.61
2023-02-14T08:45:11.663Z,81.34
2023-02-14T08:47:13.661Z,81.14
2023-02-14T08:49:16.610Z,81.39
2023-02-14T08:51:19.670Z,81.72
2023-02-14T08:53:22.764Z,81.35
2023-02-14T08:55:24.833Z,81.10
2023-02-14T08:57:27.917Z,81.39
2023-02-14T08:59:30.867Z,81.56
2023-02-14T09:01:33.109Z,82.11
2023-02-14T09:03:38.226Z,81.30
2023-02-14T09:05:40.545Z,82.12
2023-02-14T09:07:43.658Z,80.56
2023-02-14T09:09:45.798Z,80.72
2023-02-14T09:11:48.845Z,80.93
2023-02-14T09:13:55.953Z,80.75
2023-02-14T09:15:57.997Z,80.82
2023-02-14T09:18:01.165Z,80.09
2023-02-14T09:20:03.909Z,81.27
2023-02-14T09:22:08.107Z,81.06
2023-02-14T09:24:11.108Z,80.67
2023-02-14T09:26:15.276Z,79.57
2023-02-14T09:28:17.525Z,80.37
2023-02-14T09:30:20.149Z,79.80
2023-02-14T09:32:22.300Z,79.59
2023-02-14T09:34:42.886Z,79.43
2023-02-14T09:37:05.413Z,79.55
2023-02-14T09:39:08.298Z,80.21
2023-02-14T09:41:18.113Z,81.00
2023-02-14T09:43:50.742Z,80.22
2023-02-14T09:45:56.826Z,79.53
2023-02-14T09:48:15.423Z,79.33
2023-02-14T09:50:42.659Z,80.22
2023-02-14T09:52:47.806Z,80.39
2023-02-14T09:54:55.556Z,79.99
2023-02-14T09:57:09.088Z,79.29
2023-02-14T09:59:25.107Z,80.34
2023-02-14T10:01:48.229Z,80.37
2023-02-14T10:04:25.282Z,80.77
2023-02-14T10:06:39.506Z,79.09
2023-02-14T10:09:02.709Z,79.33
2023-02-14T10:11:10.365Z,79.02
2023-02-14T10:13:33.821Z,79.38
2023-02-14T10:15:41.034Z,78.32
2023-02-14T10:18:07.142Z,78.79
2023-02-14T10:20:22.159Z,78.80
2023-02-14T10:22:41.999Z,79.69
2023-02-14T10:24:49.645Z,79.61
2023-02-14T10:26:58.035Z,79.55
2023-02-14T10:29:00.078Z,79.66
2023-02-14T10:31:12.095Z,79.90
2023-02-14T10:33:19.579Z,79.63
2023-02-14T10:35:48.125Z,78.68
2023-02-14T10:38:08.338Z,78.59
2023-02-14T10:40:27.048Z,79.61
2023-02-14T10:43:06.760Z,78.51
2023-02-14T10:45:27.486Z,78.75
2023-02-14T10:47:59.226Z,79.44
2023-02-14T10:50:17.304Z,78.62
2023-02-14T10:52:30.154Z,79.35
2023-02-14T10:54:35.984Z,79.91
2023-02-14T10:56:43.771Z,79.92
2023-02-14T10:58:49.253Z,79.87
2023-02-14T11:01:03.713Z,79.64
2023-02-14T11:03:11.172Z,80.04
2023-02-14T11:05:35.149Z,79.46
2023-02-14T11:07:38.205Z,79.84
2023-02-14T11:09:40.137Z,79.25
2023-02-14T11:11:55.830Z,79.68
2023-02-14T11:13:57.935Z,78.78
2023-02-14T11:16:02.895Z,79.12
2023-02-14T11:18:10.662Z,79.72
2023-02-14T11:20:28.058Z,79.93
2023-02-14T11:22:32.270Z,80.02
2023-02-14T11:24:38.806Z,79.47
2023-02-14T11:26:49.174Z,79.77
2023-02-14T11:29:10.682Z,79.08
2023-02-14T11:31:13.896Z,79.51
2023-02-14T11:33:37.674Z,78.99
2023-02-14T11:35:46.350Z,79.38
2023-02-14T11:37:53.766Z,80.06
2023-02-14T11:39:59.941Z,79.37
2023-02-14T11:42:05.700Z,79.74
2023-02-14T11:44:22.462Z,78.92
2023-02-14T11:46:24.724Z,79.03
2023-02-14T11:48:37.835Z,78.89
2023-02-14T11:50:44.526Z,78.29
2023-02-14T11:52:51.472Z,78.61
2023-02-14T11:54:54.359Z,78.67
2023-02-14T11:57:07.674Z,77.75
2023-02-14T11:59:15.511Z,78.34
2023-02-14T12:01:35.733Z,78.24
2023-02-14T12:03:45.110Z,77.34
2023-02-14T12:05:50.386Z,77.67
2023-02-14T12:07:56.404Z,77.38
2023-02-14T12:10:16.209Z,78.46
2023-02-14T12:12:29.082Z,77.60
2023-02-14T12:14:36.135Z,76.79
2023-02-14T12:16:51.770Z,78.10
2023-02-14T12:19:19.675Z,77.57
2023-02-14T12:21:40.409Z,77.31
2023-02-14T12:24:02.809Z,78.05
2023-02-14T12:26:36.182Z,76.41
2023-02-14T12:28:44.359Z,76.93
2023-02-14T12:30:46.489Z,76.86
2023-02-14T12:32:54.213Z,76.98
2023-02-14T12:35:23.928Z,77.30
2023-02-14T12:38:06.174Z,77.28
2023-02-14T12:40:17.891Z,77.91
2023-02-14T12:42:35.195Z,77.09
2023-02-14T12:44:49.237Z,77.60
2023-02-14T12:47:33.200Z,76.58
2023-02-14T12:49:59.001Z,77.23
2023-02-14T12:52:31.576Z,77.30
2023-02-14T12:54:54.454Z,76.59
2023-02-14T12:57:08.327Z,76.70
2023-02-14T12:59:28.439Z,76.50
2023-02-14T13:01:44.322Z,77.51
2023-02-14T13:04:05.441Z,77.23
2023-02-14T13:06:30.752Z,77.16
2023-02-14T13:08:38.620Z,77.39
2023-02-14T13:11:04.677Z,76.96
2023-02-14T13:13:25.639Z,77.32
2023-02-14T13:15:47.795Z,76.38
2023-02-14T13:17:57.125Z,77.14
2023-02-14T13:20:25.125Z,77.44
2023-02-14T13:22:30.062Z,77.42
2023-02-14T13:24:47.846Z,76.29
2023-02-14T13:26:58.973Z,76.54
2023-02-14T13:29:13.911Z,76.41
2023-02-14T13:31:18.605Z,76.86
2023-02-14T13:33:41.943Z,77.17
2023-02-14T13:35:44.364Z,77.21
2023-02-14T13:37:55.283Z,77.49
2023-02-14T13:40:06.636Z,76.42
2023-02-14T13:42:08.920Z,76.72
2023-02-14T13:44:11.978Z,76.85
2023-02-14T13:46:17.701Z,76.65
2023-02-14T13:48:29.675Z,78.04
2023-02-14T13:50:38.712Z,78.05
2023-02-14T13:52:47.393Z,76.88
2023-02-14T13:54:49.397Z,77.45
2023-02-14T13:56:52.478Z,77.45
2023-02-14T13:59:03.416Z,77.93
2023-02-14T14:01:33.323Z,77.36
2023-02-14T14:03:38.427Z,77.43
2023-02-14T14:05:43.916Z,78.46
2023-02-14T14:07:46.940Z,77.43
2023-02-14T14:09:55.393Z,77.20
2023-02-14T14:11:57.411Z,77.03
2023-02-14T14:14:04.543Z,76.46
2023-02-14T14:16:27.675Z,77.58
2023-02-14T14:18:29.989Z,77.33
2023-02-14T14:20:41.511Z,77.31
2023-02-14T14:22:53.197Z,76.43
2023-02-14T14:24:56.431Z,76.87
2023-02-14T14:27:15.451Z,76.80
2023-02-14T14:29:32.308Z,76.92
2023-02-14T14:31:34.678Z,75.81
2023-02-14T14:33:37.983Z,77.15
2023-02-14T14:35:40.366Z,77.18
2023-02-14T14:37:50.234Z,75.86
2023-02-14T14:40:00.581Z,77.02
2023-02-14T14:42:16.823Z,75.95
2023-02-14T14:44:19.007Z,76.18
2023-02-14T14:46:24.269Z,77.06
2023-02-14T14:48:33.798Z,77.43
2023-02-14T14:50:36.920Z,77.10
2023-02-14T14:52:44.151Z,76.64
2023-02-14T14:54:46.350Z,76.86
2023-02-14T14:57:03.782Z,76.24
2023-02-14T14:59:38.371Z,76.50
2023-02-14T15:01:47.485Z,76.95
2023-02-14T15:03:50.224Z,76.61
2023-02-14T15:06:02.241Z,75.91
2023-02-14T15:08:31.646Z,77.43
2023-02-14T15:10:33.766Z,76.75
2023-02-14T15:12:55.327Z,76.96
2023-02-14T15:14:59.395Z,77.13
2023-02-14T15:17:06.966Z,78.07
2023-02-14T15:19:19.034Z,77.54
2023-02-14T15:21:21.782Z,76.86
2023-02-14T15:23:24.866Z,76.94
2023-02-14T15:25:33.314Z,77.76
2023-02-14T15:27:40.798Z,77.86
2023-02-14T15:29:52.960Z,77.86
2023-02-14T15:32:01.739Z,78.02
2023-02-14T15:34:06.285Z,77.44
2023-02-14T15:36:16.954Z,77.20
2023-02-14T15:38:22.248Z,78.45
2023-02-14T15:40:29.013Z,77.46
2023-02-14T15:42:33.525Z,77.56
2023-02-14T15:44:35.638Z,77.85
2023-02-14T15:46:39.618Z,78.07
2023-02-14T15:48:42.277Z,77.86
2023-02-14T15:50:51.366Z,79.19
2023-02-14T15:52:58.819Z,79.91
2023-02-14T15:55:02.921Z,79.71
2023-02-14T15:57:16.894Z,79.35
2023-02-14T15:59:33.946Z,80.79
2023-02-14T16:01:37.791Z,80.49
2023-02-14T16:03:49.558Z,80.63
2023-02-14T16:05:52.284Z,79.71
2023-02-14T16:08:06.233Z,80.85
2023-02-14T16:10:36.880Z,81.42
2023-02-14T16:12:40.378Z,80.16
2023-02-14T16:14:46.403Z,80.88
2023-02-14T16:17:06.338Z,81.16
2023-02-14T16:19:38.002Z,80.92
2023-02-14T16:21:55.628Z,80.75
2023-02-14T16:24:11.046Z,81.48
2023-02-14T16:26:15.318Z,81.58
2023-02-14T16:28:18.443Z,80.42
2023-02-14T16:30:22.452Z,81.35
2023-02-14T16:32:25.726Z,81.20
2023-02-14T16:34:29.170Z,81.09
2023-02-14T16:36:36.406Z,79.74
2023-02-14T16:38:48.356Z,80.53
2023-02-14T16:40:53.440Z,80.44
2023-02-14T16:42:56.049Z,81.09
2023-02-14T16:44:58.640Z,80.48
2023-02-14T16:47:02.376Z,81.33
2023-02-14T16:49:04.650Z,81.63
2023-02-14T16:51:14.683Z,80.88
2023-02-14T16:53:26.538Z,81.48
2023-02-14T16:55:30.361Z,81.38
2023-02-14T16:57:44.613Z,81.19
2023-02-14T16:59:47.535Z,81.24
2023-02-14T17:01:50.503Z,81.10
2023-02-14T17:03:52.847Z,82.00
2023-02-14T17:05:58.825Z,81.54
2023-02-14T17:08:02.514Z,81.14
2023-02-14T17:10:16.171Z,81.99
2023-02-14T17:12:27.729Z,82.14
2023-02-14T17:14:35.533Z,81.23
2023-02-14T17:16:37.731Z,82.30
2023-02-14T17:18:50.042Z,82.36
2023-02-14T17:20:54.041Z,81.08
2023-02-14T17:22:57.438Z,82.21
2023-02-14T17:24:59.967Z,81.66
2023-02-14T17:27:02.340Z,81.73
2023-02-14T17:29:07.585Z,82.21
2023-02-14T17:31:10.239Z,81.48
2023-02-14T17:33:14.590Z,82.63
2023-02-14T17:35:17.730Z,81.99
2023-02-14T17:37:21.274Z,81.57
2023-02-14T17:39:25.013Z,81.83
2023-02-14T17:41:29.768Z,82.26
2023-02-14T17:43:39.241Z,82.47
2023-02-14T17:45:45.412Z,81.71
2023-02-14T17:47:47.999Z,81.88
2023-02-14T17:49:50.719Z,82.28
2023-02-14T17:51:55.775Z,82.71
2023-02-14T17:53:59.075Z,82.22
2023-02-14T17:56:22.699Z,81.89
2023-02-14T17:58:25.495Z,81.49
2023-02-14T18:00:27.866Z,82.17
2023-02-14T18:02:30.740Z,81.57
2023-02-14T18:04:35.390Z,82.03
2023-02-14T18:06:38.498Z,82.16
2023-02-14T18:08:46.891Z,82.99
2023-02-14T18:10:52.686Z,82.79
2023-02-14T18:12:55.875Z,83.36
2023-02-14T18:15:01.017Z,83.70
2023-02-14T18:17:04.001Z,83.15
2023-02-14T18:19:13.313Z,83.26
2023-02-14T18:21:20.303Z,83.98
2023-02-14T18:23:30.746Z,83.24
2023-02-14T18:25:34.922Z,83.40
2023-02-14T18:27:38.959Z,83.10
2023-02-14T18:29:41.841Z,83.67
2023-02-14T18:31:45.849Z,84.22
2023-02-14T18:33:51.920Z,83.93
2023-02-14T18:35:59.063Z,84.52
2023-02-14T18:38:01.798Z,84.30
2023-02-14T18:40:04.912Z,83.27
2023-02-14T18:42:08.555Z,84.03
2023-02-14T18:44:12.250Z,83.64
2023-02-14T18:46:18.400Z,83.16
2023-02-14T18:48:23.612Z,83.22
2023-02-14T18:50:26.256Z,84.13
2023-02-14T18:52:29.750Z,83.87
2023-02-14T18:54:35.636Z,84.02
2023-02-14T18:56:39.957Z,83.37
2023-02-14T18:58:45.446Z,83.84
2023-02-14T19:00:49.471Z,84.23
2023-02-14T19:02:51.991Z,84.14
2023-02-14T19:04:54.977Z,83.49
2023-02-14T19:07:00.804Z,83.48
2023-02-14T19:09:05.856Z,84.33
2023-02-14T19:11:21.946Z,83.36
2023-02-14T19:13:28.756Z,83.42
2023-02-14T19:15:38.468Z,83.20
2023-02-14T19:17:50.116Z,83.05
2023-02-14T19:19:54.480Z,83.34
2023-02-14T19:22:02.704Z,83.46
2023-02-14T19:24:08.126Z,82.89
2023-02-14T19:26:18.478Z,83.94
2023-02-14T19:28:21.437Z,83.09
2023-02-14T19:30:24.557Z,83.67
2023-02-14T19:32:29.660Z,83.02
2023-02-14T19:34:32.902Z,83.80
2023-02-14T19:36:38.385Z,83.14
2023-02-14T19:38:49.291Z,83.22
2023-02-14T19:40:54.160Z,82.51
2023-02-14T19:42:57.014Z,83.68
2023-02-14T19:45:00.770Z,82.87
2023-02-14T19:47:19.264Z,82.86
2023-02-14T19:49:31.677Z,82.91
2023-02-14T19:51:37.043Z,82.41
2023-02-14T19:53:41.201Z,83.01
2023-02-14T19:55:44.379Z,83.73
2023-02-14T19:57:52.405Z,82.72
2023-02-14T19:59:57.288Z,84.02
2023-02-14T20:02:01.511Z,83.59
2023-02-14T20:04:06.605Z,83.80
2023-02-14T20:06:12.837Z,83.70
2023-02-14T20:08:15.644Z,83.82
2023-02-14T20:10:19.369Z,84.22
2023-02-14T20:12:22.953Z,84.59
2023-02-14T20:14:40.940Z,85.14
2023-02-14T20:16:55.399Z,84.44
2023-02-14T20:18:59.770Z,85.76
2023-02-14T20:21:03.241Z,85.63
2023-02-14T20:23:06.839Z,85.41
2023-02-14T20:25:12.050Z,86.02
2023-02-14T20:27:17.185Z,86.18
2023-02-14T20:29:22.603Z,85.69
2023-02-14T20:31:26.170Z,85.31
2023-02-14T20:33:30.231Z,86.27
2023-02-14T20:35:34.723Z,85.51
2023-02-14T20:37:38.028Z,86.62
2023-02-14T20:39:41.515Z,85.92
2023-02-14T20:41:50.643Z,85.58
2023-02-14T20:43:55.665Z,86.22
2023-02-14T20:46:04.713Z,86.18
2023-02-14T20:48:08.820Z,86.55
2023-02-14T20:50:14.039Z,86.04
2023-02-14T20:52:19.643Z,86.22
2023-02-14T20:54:27.370Z,86.50
2023-02-14T20:56:32.351Z,86.31
2023-02-14T20:58:42.467Z,86.91
2023-02-14T21:00:45.680Z,86.18
2023-02-14T21:02:48.664Z,86.84
2023-02-14T21:04:51.630Z,85.64
2023-02-14T21:06:58.355Z,86.48
2023-02-14T21:09:05.948Z,85.98
2023-02-14T21:11:12.075Z,86.55
2023-02-14T21:13:18.184Z,85.71
2023-02-14T21:15:22.132Z,86.59
2023-02-14T21:17:25.250Z,86.50
2023-02-14T21:19:29.388Z,86.83
2023-02-14T21:21:37.866Z,86.64
2023-02-14T21:23:51.886Z,86.06
2023-02-14T21:25:54.881Z,86.38
2023-02-14T21:27:59.375Z,86.31
2023-02-14T21:30:04.569Z,86.14
2023-02-14T21:32:09.265Z,86.65
2023-02-14T21:34:15.238Z,86.94
2023-02-14T21:36:20.555Z,85.79
2023-02-14T21:38:23.588Z,85.74
2023-02-14T21:40:28.001Z,86.06
2023-02-14T21:42:32.068Z,86.13
2023-02-14T21:44:53.976Z,85.86
2023-02-14T21:46:57.188Z,86.50
2023-02-14T21:49:35.518Z,85.98
2023-02-14T21:51:47.903Z,85.98
2023-02-14T21:53:53.601Z,85.82
2023-02-14T21:56:28.280Z,85.68
2023-02-14T21:58:37.835Z,85.41
2023-02-14T22:00:53.933Z,85.33
2023-02-14T22:02:56.625Z,85.25
2023-02-14T22:08:08.383Z,85.31
2023-02-14T22:10:16.175Z,84.85
2023-02-14T22:12:18.378Z,85.39
2023-02-14T22:14:35.239Z,84.89
2023-02-14T22:16:38.433Z,85.11
2023-02-14T22:18:41.550Z,85.50
2023-02-14T22:20:44.271Z,84.86
2023-02-14T22:22:46.393Z,84.90
2023-02-14T22:24:49.026Z,84.66
2023-02-14T22:26:51.150Z,84.90
2023-02-14T22:28:57.222Z,84.93
2023-02-14T22:31:00.692Z,84.08
2023-02-14T22:33:02.937Z,84.62
2023-02-14T22:35:05.381Z,85.11
2023-02-14T22:37:07.637Z,84.30
2023-02-14T22:39:13.091Z,84.91
2023-02-14T22:41:17.869Z,84.90
2023-02-14T22:43:22.839Z,85.23
2023-02-14T22:45:24.846Z,85.60
2023-02-14T22:47:26.790Z,85.39
2023-02-14T22:49:28.891Z,85.73
2023-02-14T22:51:37.975Z,85.16
2023-02-14T22:53:40.123Z,85.25
2023-02-14T22:55:42.055Z,84.67
2023-02-14T22:57:44.126Z,85.40
2023-02-14T22:59:46.173Z,85.77
2023-02-14T23:01:51.179Z,84.85
2023-02-14T23:03:55.375Z,84.98
2023-02-14T23:05:58.109Z,84.98
2023-02-14T23:08:01.536Z,85.07
2023-02-14T23:10:03.572Z,84.89
2023-02-14T23:12:27.572Z,85.58
2023-02-14T23:14:47.948Z,85.44
2023-02-14T23:17:08.985Z,85.38
2023-02-14T23:19:37.802Z,85.11
2023-02-14T23:21:55.142Z,84.77
2023-02-14T23:23:57.077Z,86.02
2023-02-14T23:25:59.799Z,85.19
2023-02-14T23:28:03.072Z,86.17
2023-02-14T23:30:07.066Z,85.26
2023-02-14T23:32:09.806Z,85.37
2023-02-14T23:34:12.065Z,86.19
2023-02-14T23:36:14.008Z,86.11
2023-02-14T23:38:16.102Z,85.65
2023-02-14T23:40:18.379Z,85.11
2023-02-14T23:42:21.296Z,86.42
2023-02-14T23:44:26.446Z,86.13
2023-02-14T23:46:28.468Z,86.44
2023-02-14T23:48:30.511Z,85.97
2023-02-14T23:50:34.520Z,85.87
2023-02-14T23:52:38.540Z,85.59
2023-02-14T23:54:41.080Z,85.58
2023-02-14T23:56:43.703Z,85.44
2023-02-14T23:58:45.635Z,85.71
